Time;durP1;ratioP1;P1;durP2;ratioP2;P2;SDS_P1;SDS_P2;PMS_P1;PMS_P2;Temp;Humidity;BMP_temperature;BMP_pressure;BME280_temperature;BME280_humidity;BME280_pressure;Samples;Min_cycle;Max_cycle;Signal;HPM_P1;HPM_P2
2022/01/16 00:04:24;;;;;;;27.25;12.88;;;;;;;3.29;78.02;100844.47;4994946;28;20121;-57
2022/01/16 00:06:51;;;;;;;23.33;11.35;;;;;;;3.25;78.06;100846.84;5005215;28;20050;-56
2022/01/16 00:09:17;;;;;;;25.60;11.18;;;;;;;3.21;78.38;100850.97;5007597;28;20053;-57
2022/01/16 00:11:44;;;;;;;26.30;12.55;;;;;;;3.15;78.36;100854.16;5003477;28;20042;-56
2022/01/16 00:14:11;;;;;;;25.38;12.60;;;;;;;3.10;78.19;100836.88;5004136;28;20485;-55
2022/01/16 00:16:39;;;;;;;30.08;12.93;;;;;;;3.07;78.97;100832.47;5004111;28;20097;-59
2022/01/16 00:19:07;;;;;;;28.85;13.85;;;;;;;3.03;78.91;100841.72;5007524;28;20057;-55
2022/01/16 00:21:38;;;;;;;30.50;12.60;;;;;;;3.00;78.46;100846.72;5000513;28;20042;-57
2022/01/16 00:24:06;;;;;;;27.40;12.32;;;;;;;2.99;78.55;100856.88;5005659;28;20093;-56
2022/01/16 00:26:33;;;;;;;29.67;12.77;;;;;;;2.99;78.87;100838.97;4999920;28;21754;-56
2022/01/16 00:28:59;;;;;;;28.95;12.52;;;;;;;2.97;79.06;100831.22;5003039;28;20136;-60
2022/01/16 00:31:26;;;;;;;26.67;11.82;;;;;;;2.98;78.34;100827.00;5003032;28;20042;-57
2022/01/16 00:33:53;;;;;;;35.45;14.77;;;;;;;2.98;78.19;100838.13;5001875;28;20049;-57
2022/01/16 00:36:21;;;;;;;26.00;13.15;;;;;;;3.01;78.62;100843.31;4998377;28;20046;-55
2022/01/16 00:38:49;;;;;;;26.70;12.68;;;;;;;2.97;79.03;100836.34;5001632;28;20049;-55
2022/01/16 00:41:18;;;;;;;24.25;12.15;;;;;;;2.96;78.48;100824.34;4999942;28;20058;-56
2022/01/16 00:43:45;;;;;;;22.60;11.38;;;;;;;2.92;79.42;100837.84;4997660;28;20050;-57
2022/01/16 00:46:12;;;;;;;26.95;11.65;;;;;;;2.89;78.31;100841.16;5002334;28;20042;-60
2022/01/16 00:48:39;;;;;;;31.92;10.35;;;;;;;2.87;78.76;100844.47;4995671;28;20425;-55
2022/01/16 00:51:06;;;;;;;25.30;12.15;;;;;;;2.80;78.05;100844.19;5002336;28;20108;-56
2022/01/16 00:53:33;;;;;;;29.77;11.85;;;;;;;2.78;77.98;100835.59;5000764;28;20569;-57
2022/01/16 00:55:59;;;;;;;24.50;11.82;;;;;;;2.75;79.01;100835.47;5000954;28;20108;-57
2022/01/16 00:58:26;;;;;;;26.42;12.82;;;;;;;2.72;78.81;100835.34;4998738;28;20049;-53
2022/01/16 01:00:53;;;;;;;24.92;12.13;;;;;;;2.70;79.14;100826.69;5000319;28;20050;-58
2022/01/16 01:03:20;;;;;;;27.02;11.70;;;;;;;2.68;78.79;100813.00;5000474;28;20050;-54
2022/01/16 01:05:47;;;;;;;27.13;12.68;;;;;;;2.63;78.97;100799.16;5000708;28;20056;-55
2022/01/16 01:08:13;;;;;;;25.60;11.10;;;;;;;2.62;79.04;100787.13;5002058;28;20041;-57
2022/01/16 01:10:42;;;;;;;26.58;11.52;;;;;;;2.59;78.12;100812.59;4992801;28;21866;-58
2022/01/16 01:13:21;;;;;;;26.50;10.27;;;;;;;2.56;78.72;100801.44;5000367;28;20604;-52
2022/01/16 01:15:50;;;;;;;26.08;11.98;;;;;;;2.54;78.57;100787.69;5000032;28;20104;-58
2022/01/16 01:18:20;;;;;;;28.77;12.65;;;;;;;2.53;78.18;100797.88;4994960;28;20053;-57
2022/01/16 01:20:49;;;;;;;30.52;11.95;;;;;;;2.49;78.29;100781.53;4997419;28;20053;-56
2022/01/16 01:23:16;;;;;;;24.45;11.15;;;;;;;2.46;78.02;100806.97;4974053;28;20051;-54
2022/01/16 01:25:43;;;;;;;23.48;11.35;;;;;;;2.44;78.87;100790.69;4989541;28;21804;-53
2022/01/16 01:28:11;;;;;;;24.63;11.77;;;;;;;2.40;78.54;100820.34;4997228;28;20061;-56
2022/01/16 01:30:40;;;;;;;21.05;10.73;;;;;;;2.39;77.99;100816.06;4999353;28;20057;-56
2022/01/16 01:33:07;;;;;;;25.00;11.23;;;;;;;2.39;78.54;100825.41;4996494;28;20039;-58
2022/01/16 01:35:38;;;;;;;23.52;11.10;;;;;;;2.37;78.09;100827.03;4999761;28;20054;-56
2022/01/16 01:38:07;;;;;;;24.73;10.38;;;;;;;2.35;79.39;100824.41;4998040;28;20050;-54
2022/01/16 01:40:36;;;;;;;24.90;11.65;;;;;;;2.33;77.93;100818.34;4998671;28;20129;-57
2022/01/16 01:51:01;;;;;;;25.42;11.60;;;;;;;2.27;78.80;100795.94;4999162;28;20096;-57
2022/01/16 01:51:37;;;;;;;26.27;11.82;;;;;;;2.20;79.08;100703.59;4999825;28;20042;-56
2022/01/16 01:54:06;;;;;;;25.25;12.30;;;;;;;2.17;78.91;100737.56;4998244;28;20580;-56
2022/01/16 01:56:35;;;;;;;25.02;10.13;;;;;;;2.12;78.65;100731.38;4980847;28;20466;-58
2022/01/16 01:59:02;;;;;;;27.35;11.15;;;;;;;2.10;79.09;100725.34;4980667;28;20058;-56
2022/01/16 02:01:31;;;;;;;25.05;10.82;;;;;;;2.10;78.72;100751.78;4978523;28;20132;-51
2022/01/16 02:03:58;;;;;;;25.92;11.98;;;;;;;2.08;78.38;100778.06;4979556;28;20121;-57
2022/01/16 02:06:27;;;;;;;29.40;11.75;;;;;;;2.07;78.10;100776.31;4980837;28;20050;-56
2022/01/16 02:08:57;;;;;;;21.63;10.88;;;;;;;2.03;78.69;100796.63;4980920;28;20050;-57
2022/01/16 02:11:27;;;;;;;23.23;11.27;;;;;;;2.04;78.08;100798.38;4980484;28;21073;-51
2022/01/16 02:14:01;;;;;;;25.65;11.27;;;;;;;2.04;78.80;100785.59;4979043;28;20061;-58
2022/01/16 02:28:02;;;;;;;24.65;11.43;;;;;;;1.96;79.31;100774.16;4996874;28;20100;-55
2022/01/16 02:30:57;;;;;;;24.20;11.35;;;;;;;1.96;79.11;100781.81;4994106;28;20461;-58
2022/01/16 02:34:28;;;;;;;22.13;10.93;;;;;;;1.99;77.90;100793.88;4995232;28;20489;-54
2022/01/16 02:36:00;;;;;;;24.92;10.07;;;;;;;2.04;78.02;100792.38;4993071;28;20111;-53
2022/01/16 02:38:27;;;;;;;19.88;8.15;;;;;;;2.10;78.08;100786.69;5000107;28;20444;-55
2022/01/16 02:40:59;;;;;;;21.30;10.60;;;;;;;2.15;79.10;100792.84;4997970;28;20119;-57
2022/01/16 02:43:35;;;;;;;22.80;10.55;;;;;;;2.21;79.50;100800.78;4997544;28;20100;-54
2022/01/16 02:46:37;;;;;;;22.73;10.45;;;;;;;2.26;78.82;100824.88;4998731;28;20049;-53
2022/01/16 02:48:54;;;;;;;25.98;10.30;;;;;;;2.30;78.93;100820.78;4991644;28;20049;-57
2022/01/16 02:51:23;;;;;;;24.40;10.38;;;;;;;2.33;79.27;100817.47;4979140;28;20050;-53
2022/01/16 02:53:51;;;;;;;25.10;11.20;;;;;;;2.35;78.33;100813.28;4978180;28;20236;-55
2022/01/16 02:56:19;;;;;;;22.52;11.25;;;;;;;2.39;78.51;100822.84;4980931;28;20058;-57
2022/01/16 02:58:47;;;;;;;26.67;12.90;;;;;;;2.40;78.64;100799.03;4979409;28;20053;-56
2022/01/16 03:01:15;;;;;;;23.77;9.30;;;;;;;2.42;78.35;100798.28;4976539;28;20434;-56
2022/01/16 03:03:42;;;;;;;25.80;12.15;;;;;;;2.46;78.63;100801.00;4978172;28;20058;-57
2022/01/16 03:06:08;;;;;;;24.27;11.45;;;;;;;2.48;78.95;100800.25;4981827;28;20097;-57
2022/01/16 03:08:35;;;;;;;25.20;12.75;;;;;;;2.49;77.87;100784.06;4978405;28;20108;-58
2022/01/16 03:11:15;;;;;;;27.38;12.82;;;;;;;2.52;78.61;100791.88;4980835;28;20046;-53
2022/01/16 03:13:47;;;;;;;25.95;11.18;;;;;;;2.55;78.49;100796.25;4982580;28;20081;-56
2022/01/16 03:16:18;;;;;;;26.67;12.43;;;;;;;2.55;78.50;100794.56;4979300;28;20046;-57
2022/01/16 03:24:18;;;;;;;27.02;13.00;;;;;;;2.51;78.41;100777.34;5003855;28;20046;-56
2022/01/16 03:26:45;;;;;;;26.00;11.30;;;;;;;2.48;77.97;100779.78;5004211;28;20080;-57
2022/01/16 03:29:11;;;;;;;24.88;12.25;;;;;;;2.48;78.76;100778.91;5002885;28;20084;-56
2022/01/16 03:31:38;;;;;;;26.15;12.27;;;;;;;2.49;79.09;100772.97;5004509;28;20100;-54
2022/01/16 03:34:05;;;;;;;26.95;11.95;;;;;;;2.50;77.85;100765.34;5004902;28;20046;-57
2022/01/16 03:36:32;;;;;;;25.13;11.77;;;;;;;2.53;78.88;100762.94;4999052;28;20050;-57
2022/01/16 03:38:58;;;;;;;28.27;12.38;;;;;;;2.54;79.01;100757.00;5005373;28;20100;-56
2022/01/16 03:41:27;;;;;;;28.50;12.43;;;;;;;2.58;79.36;100760.56;5002837;28;20046;-57
2022/01/16 03:43:58;;;;;;;23.77;11.05;;;;;;;2.60;79.11;100752.97;4990606;28;20046;-54
2022/01/16 03:46:29;;;;;;;24.08;11.23;;;;;;;2.62;78.62;100759.00;4983595;28;20082;-57
2022/01/16 03:48:56;;;;;;;22.27;11.23;;;;;;;2.65;79.27;100756.59;4982495;28;20132;-55
2022/01/16 03:51:23;;;;;;;22.67;12.02;;;;;;;2.64;79.16;100758.25;4984086;28;20061;-58
2022/01/16 03:53:50;;;;;;;27.40;11.77;;;;;;;2.64;78.11;100754.84;4985216;28;20595;-54
2022/01/16 03:56:16;;;;;;;25.63;11.80;;;;;;;2.65;79.14;100761.69;4987024;28;20478;-57
2022/01/16 03:58:43;;;;;;;26.50;10.98;;;;;;;2.66;78.71;100768.56;4986071;28;20101;-53
2022/01/16 04:01:10;;;;;;;22.85;11.20;;;;;;;2.67;77.87;100766.06;4988161;28;20057;-53
2022/01/16 04:03:36;;;;;;;24.35;11.30;;;;;;;2.69;78.85;100764.47;4982878;28;20495;-55
2022/01/16 04:06:03;;;;;;;24.05;11.68;;;;;;;2.69;78.93;100779.81;4987803;28;20096;-57
2022/01/16 04:08:30;;;;;;;27.55;12.02;;;;;;;2.72;78.69;100768.81;5001881;28;20058;-56
2022/01/16 04:10:56;;;;;;;25.90;12.05;;;;;;;2.71;78.06;100772.19;5006018;28;20486;-58
2022/01/16 04:13:23;;;;;;;26.25;12.30;;;;;;;2.74;78.79;100776.56;5002316;28;20100;-57
2022/01/16 04:15:50;;;;;;;25.25;11.40;;;;;;;2.75;77.86;100774.06;5006035;28;21563;-55
2022/01/16 04:18:17;;;;;;;30.52;12.85;;;;;;;2.76;78.25;100769.81;5000731;28;20054;-54
2022/01/16 04:20:43;;;;;;;30.27;13.10;;;;;;;2.78;79.16;100769.09;5002296;28;20062;-56
2022/01/16 04:23:10;;;;;;;27.17;12.88;;;;;;;2.77;78.17;100772.44;5003015;28;20050;-54
2022/01/16 04:25:37;;;;;;;27.67;13.55;;;;;;;2.77;78.38;100772.44;4999205;28;20042;-53
2022/01/16 04:28:04;;;;;;;22.58;11.20;;;;;;;2.77;78.55;100764.75;5005741;28;20046;-56
2022/01/16 04:30:31;;;;;;;27.90;12.85;;;;;;;2.75;79.26;100761.28;5003037;28;20050;-54
2022/01/16 04:32:58;;;;;;;23.77;12.13;;;;;;;2.73;78.08;100769.69;5005819;28;20466;-56
2022/01/16 04:35:25;;;;;;;32.58;12.40;;;;;;;2.68;78.54;100766.94;5004900;28;20046;-56
2022/01/16 04:37:51;;;;;;;26.23;12.13;;;;;;;2.64;77.86;100752.28;5008940;28;20072;-59
2022/01/16 04:40:31;;;;;;;28.63;12.10;;;;;;;2.62;77.96;100746.22;5004963;28;20137;-59
2022/01/16 04:45:44;;;;;;;25.08;12.00;;;;;;;2.60;78.39;100768.31;5007314;28;20409;-56
2022/01/16 04:48:10;;;;;;;23.77;11.32;;;;;;;2.57;78.15;100763.97;5001772;28;20143;-56
2022/01/16 04:50:37;;;;;;;25.77;11.77;;;;;;;2.59;78.07;100766.53;5010912;28;20107;-58
2022/01/16 04:53:04;;;;;;;30.40;12.00;;;;;;;2.57;79.00;100763.97;5002989;28;20046;-56
2022/01/16 04:55:30;;;;;;;28.80;12.52;;;;;;;2.54;78.90;100759.56;5009490;28;20046;-57
2022/01/16 04:57:57;;;;;;;28.17;12.63;;;;;;;2.52;79.12;100756.09;5004439;28;20050;-57
2022/01/16 05:00:23;;;;;;;25.77;12.43;;;;;;;2.50;78.77;100757.69;5007414;28;20456;-55
2022/01/16 05:02:50;;;;;;;30.50;12.57;;;;;;;2.45;78.38;100748.97;5006554;28;20057;-54
2022/01/16 05:05:16;;;;;;;28.17;13.23;;;;;;;2.43;79.37;100753.13;5006601;28;20120;-55
2022/01/16 05:07:43;;;;;;;28.13;11.63;;;;;;;2.37;79.15;100756.31;5006400;28;20464;-55
2022/01/16 05:10:10;;;;;;;31.25;14.60;;;;;;;2.36;78.26;100758.81;5004369;28;20098;-55
2022/01/16 05:12:39;;;;;;;24.70;11.50;;;;;;;2.34;79.49;100760.41;5007120;28;20050;-54
2022/01/16 05:17:53;;;;;;;26.50;12.32;;;;;;;2.30;79.12;100755.16;5001965;28;20054;-57
2022/01/16 05:20:20;;;;;;;30.65;13.27;;;;;;;2.30;78.36;100755.16;4986132;28;20050;-56
2022/01/16 05:22:47;;;;;;;27.08;12.60;;;;;;;2.33;79.73;100758.69;4982748;28;20069;-53
2022/01/16 05:25:16;;;;;;;31.65;13.45;;;;;;;2.33;79.40;100759.53;4989913;28;20054;-57
2022/01/16 05:27:43;;;;;;;28.05;12.85;;;;;;;2.36;78.67;100753.69;4986616;28;20105;-53
2022/01/16 05:30:10;;;;;;;31.27;13.95;;;;;;;2.37;79.90;100751.22;4979715;28;20533;-57
2022/01/16 05:32:36;;;;;;;25.35;12.00;;;;;;;2.41;79.12;100752.19;4988090;28;20101;-53
2022/01/16 05:35:07;;;;;;;27.63;12.85;;;;;;;2.40;78.61;100753.88;4988165;28;20050;-57
2022/01/16 05:37:34;;;;;;;25.77;12.43;;;;;;;2.42;80.02;100753.94;4985840;28;20109;-56
2022/01/16 05:40:00;;;;;;;28.48;13.13;;;;;;;2.43;78.85;100738.66;4995373;28;20061;-55
2022/01/16 05:42:27;;;;;;;25.98;12.18;;;;;;;2.43;79.22;100745.44;5005187;28;20050;-56
2022/01/16 05:44:54;;;;;;;30.17;12.18;;;;;;;2.46;79.77;100750.69;5005727;28;20148;-58
2022/01/16 05:47:20;;;;;;;31.23;13.02;;;;;;;2.48;80.17;100743.97;5004216;28;20054;-57
2022/01/16 05:49:47;;;;;;;30.45;10.52;;;;;;;2.52;79.72;100744.97;5003124;28;20597;-57
2022/01/16 05:52:34;;;;;;;28.40;11.88;;;;;;;2.55;78.86;100748.53;5005227;28;20052;-56
2022/01/16 05:55:00;;;;;;;29.45;13.60;;;;;;;2.59;80.04;100740.97;5002827;28;20045;-56
2022/01/16 05:57:27;;;;;;;25.02;11.55;;;;;;;2.63;79.27;100742.88;5006504;28;20050;-56
2022/01/16 05:59:55;;;;;;;29.55;11.55;;;;;;;2.66;79.19;100750.66;5005246;28;20560;-58
2022/01/16 06:02:21;;;;;;;29.23;15.15;;;;;;;2.69;79.80;100758.44;5004533;28;20524;-54
2022/01/16 06:04:48;;;;;;;33.05;12.63;;;;;;;2.72;79.14;100747.47;5005467;28;20054;-54
2022/01/16 06:07:15;;;;;;;30.85;13.02;;;;;;;2.75;79.92;100758.72;5002455;28;20045;-54
2022/01/16 06:09:42;;;;;;;32.88;12.88;;;;;;;2.77;79.37;100777.53;5007441;28;20050;-57
2022/01/16 06:12:09;;;;;;;26.00;13.05;;;;;;;2.78;79.79;100774.19;5001500;28;20050;-54
2022/01/16 06:14:35;;;;;;;27.90;11.75;;;;;;;2.81;79.97;100774.28;5007547;28;20425;-58
2022/01/16 06:17:02;;;;;;;32.08;12.90;;;;;;;2.83;79.61;100777.81;5003603;28;20065;-53
2022/01/16 06:19:29;;;;;;;25.75;10.50;;;;;;;2.85;78.88;100789.78;5008280;28;20054;-55
2022/01/16 06:21:56;;;;;;;28.63;11.50;;;;;;;2.89;79.83;100791.66;5001760;28;20042;-54
2022/01/16 06:24:23;;;;;;;27.50;12.18;;;;;;;2.89;79.37;100796.78;5002087;28;20077;-58
2022/01/16 06:26:49;;;;;;;28.25;12.30;;;;;;;2.90;78.73;100795.97;5001470;28;20061;-55
2022/01/16 06:29:17;;;;;;;29.42;12.55;;;;;;;2.92;79.98;100807.13;4999322;28;20120;-58
2022/01/16 06:31:44;;;;;;;30.33;12.82;;;;;;;2.93;78.92;100814.00;5000040;28;20100;-56
2022/01/16 06:34:11;;;;;;;32.45;12.88;;;;;;;2.94;79.23;100805.53;4997402;28;20050;-56
2022/01/16 06:36:38;;;;;;;28.83;13.05;;;;;;;2.94;78.95;100816.63;4999506;28;20050;-57
2022/01/16 06:39:07;;;;;;;29.13;12.90;;;;;;;2.95;79.07;100832.84;5004150;28;20053;-55
2022/01/16 06:41:34;;;;;;;30.27;12.80;;;;;;;2.95;79.69;100830.31;5006555;28;20145;-57
2022/01/16 06:44:02;;;;;;;29.90;12.45;;;;;;;2.97;78.80;100848.28;5000126;28;20081;-56
2022/01/16 06:46:29;;;;;;;27.85;11.80;;;;;;;2.98;79.20;100848.34;5007898;28;20050;-55
2022/01/16 06:48:56;;;;;;;32.45;14.35;;;;;;;2.97;79.27;100836.34;5004256;28;20545;-53
2022/01/16 06:51:24;;;;;;;27.17;12.60;;;;;;;2.97;78.83;100841.47;5008127;28;20042;-55
2022/01/16 06:53:55;;;;;;;27.95;13.18;;;;;;;2.98;78.56;100838.13;5003730;28;20113;-56
2022/01/16 06:56:22;;;;;;;29.15;12.95;;;;;;;3.00;78.89;100841.59;5003732;28;20070;-54
2022/01/16 06:58:50;;;;;;;30.40;10.35;;;;;;;3.01;78.61;100848.44;5001973;28;20438;-56
2022/01/16 07:01:29;;;;;;;32.03;12.82;;;;;;;3.01;79.94;100852.72;5003943;28;20081;-51
2022/01/16 07:03:59;;;;;;;28.48;13.18;;;;;;;3.04;78.89;100847.72;5005450;28;20521;-57
2022/01/16 07:06:26;;;;;;;27.83;13.23;;;;;;;3.05;79.76;100849.47;5003678;28;20050;-56
2022/01/16 07:08:52;;;;;;;38.78;14.23;;;;;;;3.07;79.25;100852.94;5005266;28;20054;-56
2022/01/16 07:11:19;;;;;;;30.10;13.02;;;;;;;3.08;78.98;100862.41;5004974;28;20092;-56
2022/01/16 07:13:45;;;;;;;28.70;12.35;;;;;;;3.08;79.21;100863.25;5004155;28;20050;-54
2022/01/16 07:16:12;;;;;;;27.30;12.75;;;;;;;3.11;79.15;100861.66;5000826;28;20154;-57
2022/01/16 07:18:39;;;;;;;26.95;13.32;;;;;;;3.13;79.08;100862.56;5007439;28;20050;-57
2022/01/16 07:21:12;;;;;;;26.92;11.45;;;;;;;3.14;79.84;100874.56;5002584;28;20052;-54
2022/01/16 07:23:41;;;;;;;27.38;12.07;;;;;;;3.16;79.69;100872.94;5004640;28;20049;-56
2022/01/16 07:26:08;;;;;;;29.52;13.18;;;;;;;3.20;79.96;100874.81;5002967;28;20111;-52
2022/01/16 07:28:35;;;;;;;33.03;13.82;;;;;;;3.24;79.69;100869.00;5005944;28;20359;-56
2022/01/16 07:31:02;;;;;;;26.30;12.43;;;;;;;3.24;79.52;100861.31;4998796;28;20050;-58
2022/01/16 07:33:29;;;;;;;32.50;14.05;;;;;;;3.24;79.26;100851.06;5000847;28;21654;-59
2022/01/16 07:35:56;;;;;;;30.67;15.02;;;;;;;3.21;79.58;100856.94;4996962;28;20054;-54
2022/01/16 07:38:22;;;;;;;29.10;13.57;;;;;;;3.24;79.74;100865.59;4999828;28;20050;-55
2022/01/16 07:40:49;;;;;;;29.80;12.68;;;;;;;3.24;80.01;100871.56;4998369;28;20180;-57
2022/01/16 07:43:16;;;;;;;30.15;13.10;;;;;;;3.24;79.53;100871.56;4998336;28;20234;-55
2022/01/16 07:45:43;;;;;;;33.03;14.52;;;;;;;3.24;79.15;100863.88;5000369;28;20049;-57
2022/01/16 07:48:10;;;;;;;32.40;13.45;;;;;;;3.24;79.36;100866.44;4998600;28;20872;-52
2022/01/16 07:50:37;;;;;;;32.60;13.55;;;;;;;3.24;79.27;100876.69;5001106;28;20478;-54
2022/01/16 07:53:04;;;;;;;30.65;13.35;;;;;;;3.22;80.21;100888.56;4997177;28;20042;-59
2022/01/16 07:55:31;;;;;;;30.88;13.85;;;;;;;3.22;79.99;100896.25;5001770;28;20065;-59
2022/01/16 07:57:58;;;;;;;36.05;15.13;;;;;;;3.23;79.54;100887.75;5001682;28;20049;-56
2022/01/16 08:00:31;;;;;;;28.92;12.82;;;;;;;3.20;80.64;100885.03;5001475;28;20054;-58
2022/01/16 08:02:57;;;;;;;28.48;12.50;;;;;;;3.22;80.00;100883.44;4999220;28;20053;-55
2022/01/16 08:05:25;;;;;;;29.88;12.75;;;;;;;3.24;79.35;100889.47;4985053;28;20046;-55
2022/01/16 08:07:51;;;;;;;32.90;14.57;;;;;;;3.26;79.73;100879.31;4983962;28;20108;-57
2022/01/16 08:10:18;;;;;;;38.17;14.88;;;;;;;3.25;79.43;100883.56;4988170;28;20050;-56
2022/01/16 08:12:45;;;;;;;33.03;13.13;;;;;;;3.28;79.28;100883.66;4985642;28;20108;-55
2022/01/16 08:15:12;;;;;;;62.08;26.17;;;;;;;3.30;80.15;100887.19;4991497;28;20097;-57
2022/01/16 08:17:38;;;;;;;56.25;25.70;;;;;;;3.33;79.39;100886.44;4988307;28;20407;-58
2022/01/16 08:20:08;;;;;;;44.70;19.10;;;;;;;3.34;79.75;100886.50;4989394;28;20046;-54
2022/01/16 08:22:36;;;;;;;33.78;15.00;;;;;;;3.36;79.12;100876.31;4982369;28;20096;-55
2022/01/16 08:25:04;;;;;;;30.40;13.68;;;;;;;3.38;79.83;100884.91;4988662;28;20062;-53
2022/01/16 08:27:31;;;;;;;30.75;13.23;;;;;;;3.40;79.89;100890.09;4988357;28;20050;-52
2022/01/16 08:30:04;;;;;;;29.27;13.20;;;;;;;3.41;79.28;100884.19;4987943;28;20149;-58
2022/01/16 08:32:32;;;;;;;28.15;13.25;;;;;;;3.42;79.32;100883.38;4988289;28;20054;-54
2022/01/16 08:34:59;;;;;;;28.30;12.82;;;;;;;3.45;79.91;100888.63;5007586;28;20382;-55
2022/01/16 08:37:27;;;;;;;31.45;12.88;;;;;;;3.45;79.29;100902.28;5004413;28;20722;-57
2022/01/16 08:39:53;;;;;;;34.65;17.45;;;;;;;3.45;78.98;100906.56;5005611;28;20096;-56
2022/01/16 08:42:21;;;;;;;32.05;12.88;;;;;;;3.44;79.08;100915.03;5003129;28;20069;-54
2022/01/16 08:44:49;;;;;;;27.80;13.25;;;;;;;3.42;79.15;100914.09;5008092;28;20111;-57
2022/01/16 08:47:17;;;;;;;28.95;12.80;;;;;;;3.42;79.91;100916.66;5005900;28;20077;-57
2022/01/16 08:49:43;;;;;;;35.65;14.90;;;;;;;3.42;78.96;100926.91;5006920;28;20050;-53
2022/01/16 08:52:10;;;;;;;82.90;24.80;;;;;;;3.43;79.73;100934.66;5002393;28;20050;-56
2022/01/16 08:54:37;;;;;;;84.00;26.50;;;;;;;3.45;79.71;100937.28;5006845;28;20104;-55
2022/01/16 08:57:04;;;;;;;74.30;22.85;;;;;;;3.51;79.27;100950.31;5010852;28;20092;-56
2022/01/16 08:59:30;;;;;;;64.70;20.77;;;;;;;3.57;79.77;100950.59;5003265;28;20469;-58
2022/01/16 09:01:57;;;;;;;58.83;22.13;;;;;;;3.66;79.46;100959.44;4999181;28;20050;-54
2022/01/16 09:04:24;;;;;;;61.22;22.50;;;;;;;3.76;79.22;100969.25;5002920;28;20049;-53
2022/01/16 09:06:51;;;;;;;64.05;22.27;;;;;;;3.92;79.25;100975.84;5003970;28;20124;-57
2022/01/16 09:09:17;;;;;;;59.97;18.50;;;;;;;3.99;78.41;100982.97;4999671;28;20437;-56
2022/01/16 09:11:44;;;;;;;59.25;19.58;;;;;;;4.05;79.22;100982.34;4988225;28;20058;-57
2022/01/16 09:14:11;;;;;;;47.67;19.02;;;;;;;4.06;78.80;100993.50;4988761;28;20065;-56
2022/01/16 09:16:37;;;;;;;51.67;20.08;;;;;;;4.05;78.61;100995.16;4980928;28;20069;-53
2022/01/16 09:19:04;;;;;;;42.10;15.50;;;;;;;4.05;78.62;100999.44;4986887;28;20591;-56
2022/01/16 09:21:30;;;;;;;53.60;18.85;;;;;;;3.99;78.67;100998.34;4987301;28;20108;-58
2022/01/16 09:23:57;;;;;;;52.55;18.95;;;;;;;4.00;78.64;101009.50;4985187;28;20050;-54
2022/01/16 09:26:25;;;;;;;50.22;18.65;;;;;;;4.01;78.39;101021.50;4988444;28;20065;-55
2022/01/16 09:28:52;;;;;;;38.13;16.73;;;;;;;4.01;78.48;101021.50;4988111;28;20121;-56
2022/01/16 09:31:20;;;;;;;38.33;16.35;;;;;;;4.03;78.50;101025.00;4982574;28;20093;-57
2022/01/16 09:33:46;;;;;;;37.95;14.75;;;;;;;4.03;78.33;101030.13;4997171;28;20046;-55
2022/01/16 09:36:13;;;;;;;42.38;15.68;;;;;;;4.03;78.16;101029.25;4997745;28;20053;-55
2022/01/16 09:38:41;;;;;;;38.60;15.23;;;;;;;4.05;78.35;101027.63;4988252;28;20046;-57
2022/01/16 09:41:08;;;;;;;33.67;14.23;;;;;;;4.05;78.33;101038.75;4989375;28;20081;-54
2022/01/16 09:43:35;;;;;;;33.38;14.82;;;;;;;4.08;78.19;101044.00;4990063;28;20552;-56
2022/01/16 09:46:02;;;;;;;32.67;15.02;;;;;;;4.15;78.46;101054.53;4988145;28;20054;-56
2022/01/16 09:48:29;;;;;;;34.83;16.38;;;;;;;4.24;78.65;101065.13;4987285;28;20109;-57
2022/01/16 09:50:56;;;;;;;38.67;16.23;;;;;;;4.32;78.39;101074.00;4984162;28;20462;-55
2022/01/16 09:53:23;;;;;;;43.85;19.25;;;;;;;4.54;78.57;101072.28;4986972;28;20065;-53
2022/01/16 09:55:50;;;;;;;50.92;19.13;;;;;;;4.85;79.10;101073.44;5003030;28;20042;-54
2022/01/16 09:58:19;;;;;;;57.83;19.40;;;;;;;4.98;77.63;101076.47;5002895;28;20054;-53
2022/01/16 10:00:46;;;;;;;55.70;20.02;;;;;;;5.10;77.15;101068.34;5003377;28;20089;-57
2022/01/16 10:03:38;;;;;;;46.60;17.83;;;;;;;5.18;77.06;101078.88;5001234;28;20046;-56
2022/01/16 10:06:10;;;;;;;49.80;19.27;;;;;;;5.92;78.59;101070.28;5003199;28;20635;-55
2022/01/16 10:08:39;;;;;;;45.53;16.73;;;;;;;7.10;78.89;101067.84;5006618;28;20465;-59
2022/01/16 10:11:29;;;;;;;35.17;15.77;;;;;;;8.41;78.11;101081.41;5003817;28;20046;-57
2022/01/16 10:14:08;;;;;;;28.70;12.20;;;;;;;9.65;75.86;101087.38;5004623;28;20631;-58
2022/01/16 10:16:39;;;;;;;33.13;13.65;;;;;;;10.79;73.05;101082.25;4998760;28;20093;-53
2022/01/16 10:19:20;;;;;;;36.50;15.13;;;;;;;11.66;70.69;101091.84;5007764;28;20545;-55
2022/01/16 10:21:47;;;;;;;31.25;13.95;;;;;;;11.79;68.96;101098.88;5002645;28;20058;-59
2022/01/16 10:24:25;;;;;;;30.58;13.48;;;;;;;11.26;65.91;101098.34;5003182;28;20116;-57
2022/01/16 10:27:14;;;;;;;34.97;14.70;;;;;;;11.00;68.55;101096.31;5004552;28;20058;-58
2022/01/16 10:29:43;;;;;;;31.75;15.38;;;;;;;11.66;68.38;101102.22;5004230;28;20078;-52
2022/01/16 10:32:25;;;;;;;39.33;17.13;;;;;;;12.26;66.11;101095.84;5001736;28;20050;-60
2022/01/16 10:35:07;;;;;;;46.80;18.92;;;;;;;12.92;66.26;101110.06;5001368;28;20088;-55
2022/01/16 10:37:34;;;;;;;44.25;17.92;;;;;;;13.66;66.17;101122.47;5007803;28;20050;-57
2022/01/16 10:40:09;;;;;;;43.28;17.23;;;;;;;14.26;63.63;101125.97;5004206;28;20069;-56
2022/01/16 10:42:39;;;;;;;30.80;15.25;;;;;;;14.78;62.29;101125.03;5006566;28;20050;-58
2022/01/16 10:45:15;;;;;;;33.10;15.98;;;;;;;15.33;60.52;101122.19;5000531;28;20042;-56
2022/01/16 10:47:51;;;;;;;25.95;13.35;;;;;;;15.61;58.09;101132.50;5002013;28;20100;-56
2022/01/16 10:50:22;;;;;;;25.98;13.68;;;;;;;15.47;58.42;101136.94;5005460;28;20058;-55
2022/01/16 10:52:57;;;;;;;26.13;14.70;;;;;;;15.12;55.96;101128.38;5003173;28;20073;-57
2022/01/16 10:55:34;;;;;;;23.88;12.82;;;;;;;14.64;55.55;101138.09;5006091;28;20054;-57
2022/01/16 10:58:13;;;;;;;21.13;11.93;;;;;;;14.14;57.92;101138.13;5003229;28;20094;-57
2022/01/16 11:00:44;;;;;;;23.48;12.95;;;;;;;13.57;57.86;101143.25;5001124;28;20116;-57
2022/01/16 11:03:13;;;;;;;21.80;12.02;;;;;;;13.02;59.43;101148.25;4998744;28;20124;-57
2022/01/16 11:05:44;;;;;;;22.52;11.68;;;;;;;12.63;59.38;101145.44;5001710;28;20332;-57
2022/01/16 11:08:13;;;;;;;26.23;12.13;;;;;;;12.60;60.14;101150.63;5004108;28;20057;-59
2022/01/16 11:10:43;;;;;;;23.10;12.30;;;;;;;12.32;59.50;101156.47;4997598;28;20095;-57
2022/01/16 11:13:13;;;;;;;20.25;12.18;;;;;;;11.95;59.76;101163.91;4996679;28;20045;-54
2022/01/16 11:15:42;;;;;;;21.95;11.27;;;;;;;11.60;61.43;101172.22;4999305;28;20049;-57
2022/01/16 11:18:11;;;;;;;21.70;12.00;;;;;;;11.23;60.98;101170.94;5002074;28;20053;-57
2022/01/16 11:20:40;;;;;;;20.83;11.20;;;;;;;10.93;62.38;101177.44;5005103;28;20068;-56
2022/01/16 11:26:05;;;;;;;24.23;10.98;;;;;;;10.31;63.30;101182.53;4993181;28;20042;-58
2022/01/16 11:28:33;;;;;;;18.05;10.65;;;;;;;10.19;63.83;101178.00;4982292;28;20056;-57
2022/01/16 11:31:03;;;;;;;16.20;9.73;;;;;;;10.08;64.43;101174.38;4987461;28;20054;-53
2022/01/16 11:33:32;;;;;;;16.30;9.02;;;;;;;10.06;64.61;101165.72;4984832;28;20083;-57
2022/01/16 11:36:07;;;;;;;19.70;9.88;;;;;;;9.90;64.79;101160.28;4986361;28;20046;-57
2022/01/16 11:38:37;;;;;;;21.63;10.23;;;;;;;9.82;65.20;101152.34;4979961;28;20702;-58
2022/01/16 11:41:12;;;;;;;18.10;8.88;;;;;;;9.74;65.11;101144.47;4982311;28;20054;-56
2022/01/16 11:43:40;;;;;;;17.02;7.75;;;;;;;9.70;66.10;101147.84;4984691;28;20054;-57
2022/01/16 11:46:12;;;;;;;23.52;9.70;;;;;;;9.69;66.24;101146.06;4991908;28;20049;-56
2022/01/16 11:48:47;;;;;;;18.52;8.73;;;;;;;9.71;66.32;101144.41;5000832;28;20053;-55
2022/01/16 11:51:51;;;;;;;16.33;9.40;;;;;;;9.76;66.83;101142.75;5013392;28;20048;-58
2022/01/16 11:54:30;;;;;;;16.40;8.35;;;;;;;9.89;66.52;101154.22;5004000;28;20485;-58
2022/01/16 11:57:03;;;;;;;15.57;8.73;;;;;;;10.06;66.31;101155.38;5001086;28;20065;-56
2022/01/16 11:59:39;;;;;;;10.40;7.03;;;;;;;10.07;65.62;101167.44;5004253;28;20045;-54